createdAt,value
2022-08-30T00:01:14.527Z,6.60
2022-08-30T00:03:55.260Z,6.33
2022-08-30T00:06:30.447Z,6.80
2022-08-30T00:09:02.658Z,6.10
2022-08-30T00:11:34.799Z,7.10
2022-08-30T00:14:07.087Z,6.23
2022-08-30T00:16:39.197Z,6.60
2022-08-30T00:19:11.193Z,6.00
2022-08-30T00:21:43.219Z,6.37
2022-08-30T00:24:15.434Z,7.07
2022-08-30T00:26:47.432Z,7.00
2022-08-30T00:29:19.657Z,6.10
2022-08-30T00:31:51.890Z,6.07
2022-08-30T00:34:23.888Z,6.83
2022-08-30T00:36:55.905Z,5.53
2022-08-30T00:39:28.849Z,6.23
2022-08-30T00:42:00.822Z,6.33
2022-08-30T00:44:33.041Z,6.20
2022-08-30T00:47:05.550Z,6.23
2022-08-30T00:49:41.626Z,6.60
2022-08-30T00:52:18.801Z,6.40
2022-08-30T00:54:53.055Z,6.63
2022-08-30T00:57:25.193Z,6.17
2022-08-30T00:59:57.745Z,6.10
2022-08-30T01:02:31.311Z,5.97
2022-08-30T01:05:08.532Z,5.70
2022-08-30T01:07:42.944Z,6.00
2022-08-30T01:10:15.611Z,5.80
2022-08-30T01:12:48.612Z,7.30
2022-08-30T01:15:20.989Z,6.27
2022-08-30T01:17:54.207Z,5.80
2022-08-30T01:20:34.079Z,6.07
2022-08-30T01:23:16.487Z,6.33
2022-08-30T01:25:52.318Z,5.63
2022-08-30T01:28:26.568Z,6.73
2022-08-30T01:31:01.763Z,6.77
2022-08-30T01:33:37.459Z,6.90
2022-08-30T01:36:12.458Z,6.53
2022-08-30T01:38:54.720Z,6.47
2022-08-30T01:41:34.345Z,6.32
2022-08-30T01:44:10.344Z,6.70
2022-08-30T01:46:47.315Z,5.97
2022-08-30T01:49:27.588Z,7.13
2022-08-30T01:52:01.655Z,6.30
2022-08-30T01:54:38.616Z,6.65
2022-08-30T01:57:14.754Z,6.10
2022-08-30T01:59:50.438Z,6.85
2022-08-30T02:02:26.107Z,6.43
2022-08-30T02:04:59.465Z,6.13
2022-08-30T02:07:31.922Z,6.17
2022-08-30T02:10:04.413Z,6.20
2022-08-30T02:12:37.055Z,6.07
2022-08-30T02:15:10.032Z,6.67
2022-08-30T02:17:44.626Z,6.27
2022-08-30T02:20:16.666Z,6.30
2022-08-30T02:22:49.512Z,6.57
2022-08-30T02:25:21.762Z,6.40
2022-08-30T02:27:53.954Z,6.40
2022-08-30T02:30:26.514Z,6.72
2022-08-30T02:32:58.631Z,6.70
2022-08-30T02:35:31.010Z,7.43
2022-08-30T02:38:03.524Z,7.03
2022-08-30T02:40:36.133Z,7.20
2022-08-30T02:43:12.151Z,8.10
2022-08-30T02:45:44.383Z,7.70
2022-08-30T02:48:16.667Z,7.50
2022-08-30T02:50:52.043Z,8.07
2022-08-30T02:53:24.373Z,6.78
2022-08-30T02:55:59.104Z,7.20
2022-08-30T02:58:32.342Z,6.43
2022-08-30T03:01:05.848Z,6.53
2022-08-30T03:03:38.122Z,6.70
2022-08-30T03:06:11.055Z,6.85
2022-08-30T03:08:43.907Z,6.60
2022-08-30T03:11:16.074Z,6.78
2022-08-30T03:13:48.376Z,7.00
2022-08-30T03:16:22.620Z,7.55
2022-08-30T03:18:54.771Z,6.60
2022-08-30T03:21:27.204Z,7.17
2022-08-30T03:23:59.213Z,6.50
2022-08-30T03:26:31.243Z,6.37
2022-08-30T03:29:03.595Z,6.82
2022-08-30T03:31:40.668Z,7.00
2022-08-30T03:34:25.854Z,7.30
2022-08-30T03:36:58.634Z,6.60
2022-08-30T03:39:32.130Z,7.35
2022-08-30T03:42:04.693Z,7.40
2022-08-30T03:44:37.829Z,7.00
2022-08-30T03:47:10.738Z,7.40
2022-08-30T03:49:43.054Z,7.72
2022-08-30T03:52:15.116Z,6.78
2022-08-30T03:54:48.574Z,7.25
2022-08-30T03:57:24.260Z,6.47
2022-08-30T03:59:57.286Z,7.47
2022-08-30T04:02:30.330Z,7.30
2022-08-30T04:05:02.484Z,6.85
2022-08-30T04:07:35.630Z,6.90
2022-08-30T04:10:08.955Z,7.05
2022-08-30T04:12:43.229Z,7.90
2022-08-30T04:15:19.482Z,7.80
2022-08-30T04:17:51.546Z,7.70
2022-08-30T04:20:25.654Z,7.25
2022-08-30T04:22:58.591Z,7.70
2022-08-30T04:25:30.602Z,7.85
2022-08-30T04:28:03.728Z,8.38
2022-08-30T04:30:40.499Z,8.40
2022-08-30T04:33:15.624Z,8.60
2022-08-30T04:35:49.647Z,8.48
2022-08-30T04:38:22.620Z,8.95
2022-08-30T04:40:55.401Z,8.57
2022-08-30T04:43:27.581Z,8.10
2022-08-30T04:45:59.728Z,7.00
2022-08-30T04:48:38.029Z,7.80
2022-08-30T04:51:14.649Z,6.75
2022-08-30T04:53:48.045Z,7.88
2022-08-30T04:56:22.859Z,7.87
2022-08-30T04:58:55.593Z,7.50
2022-08-30T05:01:31.003Z,7.60
2022-08-30T05:04:04.271Z,8.10
2022-08-30T05:06:37.805Z,7.25
2022-08-30T05:09:09.982Z,7.65
2022-08-30T05:11:43.296Z,6.68
2022-08-30T05:14:16.732Z,7.47
2022-08-30T05:16:49.237Z,7.57
2022-08-30T05:19:21.304Z,7.43
2022-08-30T05:21:54.295Z,7.80
2022-08-30T05:24:26.780Z,7.83
2022-08-30T05:26:59.534Z,7.80
2022-08-30T05:29:32.622Z,7.45
2022-08-30T05:32:04.758Z,7.47
2022-08-30T05:34:37.066Z,8.60
2022-08-30T05:37:09.078Z,8.20
2022-08-30T05:39:50.777Z,8.30
2022-08-30T05:42:23.917Z,9.10
2022-08-30T05:44:56.356Z,8.95
2022-08-30T05:47:28.617Z,8.75
2022-08-30T05:50:00.676Z,9.00
2022-08-30T05:52:36.297Z,8.67
2022-08-30T05:55:11.246Z,9.30
2022-08-30T05:57:43.445Z,9.73
2022-08-30T06:00:18.355Z,11.03
2022-08-30T06:02:54.514Z,9.90
2022-08-30T06:05:26.568Z,9.27
2022-08-30T06:07:58.585Z,10.27
2022-08-30T06:10:30.650Z,11.03
2022-08-30T06:13:02.768Z,10.33
2022-08-30T06:15:35.023Z,10.43
2022-08-30T06:18:07.475Z,10.73
2022-08-30T06:20:44.558Z,9.97
2022-08-30T06:23:18.565Z,11.03
2022-08-30T06:25:51.214Z,9.67
2022-08-30T06:28:23.398Z,10.23
2022-08-30T06:30:57.763Z,9.33
2022-08-30T06:33:29.801Z,9.50
2022-08-30T06:36:06.613Z,10.40
2022-08-30T06:38:43.443Z,9.83
2022-08-30T06:41:19.454Z,9.67
2022-08-30T06:43:54.696Z,11.10
2022-08-30T06:46:32.566Z,11.60
2022-08-30T06:49:07.715Z,11.23
2022-08-30T06:51:40.109Z,10.27
2022-08-30T06:54:13.337Z,10.43
2022-08-30T06:56:58.277Z,10.43
2022-08-30T06:59:32.491Z,9.10
2022-08-30T07:02:06.476Z,9.57
2022-08-30T07:04:44.754Z,9.70
2022-08-30T07:07:16.741Z,9.40
2022-08-30T07:09:48.928Z,8.80
2022-08-30T07:12:21.548Z,7.80
2022-08-30T07:14:53.781Z,8.10
2022-08-30T07:17:44.168Z,7.87
2022-08-30T07:20:40.271Z,7.43
2022-08-30T07:23:13.276Z,5.93
2022-08-30T07:25:45.371Z,6.30
2022-08-30T07:28:17.802Z,7.10
2022-08-30T07:30:50.047Z,6.93
2022-08-30T07:33:22.290Z,6.80
2022-08-30T07:35:54.415Z,6.93
2022-08-30T07:38:27.508Z,7.50
2022-08-30T07:41:02.805Z,7.67
2022-08-30T07:43:37.105Z,7.10
2022-08-30T07:46:10.012Z,8.37
2022-08-30T07:48:42.457Z,8.50
2022-08-30T07:51:19.803Z,7.37
2022-08-30T07:53:55.987Z,7.93
2022-08-30T07:56:28.573Z,7.57
2022-08-30T07:59:00.648Z,7.90
2022-08-30T08:01:32.953Z,8.20
2022-08-30T08:04:05.198Z,7.73
2022-08-30T08:06:39.944Z,7.20
2022-08-30T08:09:15.017Z,7.27
2022-08-30T08:11:47.252Z,7.03
2022-08-30T08:14:21.442Z,7.47
2022-08-30T08:19:47.410Z,6.93
2022-08-30T08:22:21.305Z,6.97
2022-08-30T08:24:54.119Z,6.67
2022-08-30T08:27:26.162Z,6.17
2022-08-30T08:29:58.359Z,6.93
2022-08-30T08:32:30.424Z,6.20
2022-08-30T08:35:02.485Z,6.87
2022-08-30T08:37:34.784Z,6.67
2022-08-30T08:40:08.061Z,7.07
2022-08-30T08:43:03.952Z,6.40
2022-08-30T08:46:10.089Z,6.27
2022-08-30T08:49:03.529Z,5.60
2022-08-30T08:51:58.860Z,5.47
2022-08-30T08:54:57.917Z,5.73
2022-08-30T08:57:37.557Z,5.70
2022-08-30T09:00:12.521Z,5.60
2022-08-30T09:02:55.700Z,6.13
2022-08-30T09:05:40.684Z,5.47
2022-08-30T09:08:17.087Z,5.47
2022-08-30T09:11:04.645Z,5.23
2022-08-30T09:13:38.142Z,5.20
2022-08-30T09:16:46.946Z,5.37
2022-08-30T09:19:52.054Z,5.57
2022-08-30T09:22:37.978Z,5.60
2022-08-30T09:25:14.442Z,5.10
2022-08-30T09:28:12.615Z,5.30
2022-08-30T09:31:01.297Z,5.40
2022-08-30T09:33:38.332Z,5.40
2022-08-30T09:36:20.941Z,5.50
2022-08-30T09:39:25.192Z,5.77
2022-08-30T09:42:26.528Z,5.27
2022-08-30T09:45:12.877Z,4.80
2022-08-30T09:47:50.211Z,5.07
2022-08-30T09:50:24.313Z,5.20
2022-08-30T09:53:11.703Z,4.97
2022-08-30T09:56:39.225Z,6.00
2022-08-30T09:59:52.039Z,5.40
2022-08-30T10:02:53.181Z,5.10
2022-08-30T10:06:20.754Z,5.40
2022-08-30T10:09:03.242Z,4.40
2022-08-30T10:12:07.289Z,5.00
2022-08-30T10:15:19.686Z,5.37
2022-08-30T10:18:45.584Z,5.00
2022-08-30T10:21:43.439Z,5.00
2022-08-30T10:24:34.941Z,5.40
2022-08-30T10:27:24.864Z,5.20
2022-08-30T10:30:10.630Z,5.13
2022-08-30T10:33:02.017Z,5.30
2022-08-30T10:35:50.342Z,4.80
2022-08-30T10:38:35.336Z,5.20
2022-08-30T10:41:22.520Z,5.30
2022-08-30T10:44:11.866Z,4.67
2022-08-30T10:47:23.248Z,5.23
2022-08-30T10:50:41.228Z,4.60
2022-08-30T10:53:50.087Z,4.87
2022-08-30T10:56:29.552Z,5.30
2022-08-30T10:59:05.329Z,5.63
2022-08-30T11:01:56.195Z,5.20
2022-08-30T11:05:16.282Z,5.10
2022-08-30T11:08:08.337Z,4.60
2022-08-30T11:11:18.356Z,4.80
2022-08-30T11:14:14.568Z,5.57
2022-08-30T11:16:51.873Z,6.03
2022-08-30T11:19:36.177Z,5.57
2022-08-30T11:22:36.832Z,4.97
2022-08-30T11:25:53.543Z,4.93
2022-08-30T11:28:35.822Z,5.10
2022-08-30T11:31:38.759Z,4.00
2022-08-30T11:34:33.293Z,4.70
2022-08-30T11:37:40.959Z,4.40
2022-08-30T11:40:20.726Z,4.50
2022-08-30T11:43:34.444Z,4.67
2022-08-30T11:46:37.884Z,5.33
2022-08-30T11:49:14.475Z,5.17
2022-08-30T11:52:27.516Z,4.17
2022-08-30T11:55:21.965Z,5.40
2022-08-30T11:58:21.925Z,4.93
2022-08-30T12:01:49.903Z,5.00
2022-08-30T12:04:17.845Z,4.60
2022-08-30T12:07:10.088Z,4.50
2022-08-30T12:09:43.197Z,4.70
2022-08-30T12:12:37.757Z,5.20
2022-08-30T12:15:55.983Z,4.47
2022-08-30T12:18:46.558Z,5.17
2022-08-30T12:21:21.444Z,4.33
2022-08-30T12:24:18.779Z,4.63
2022-08-30T12:26:58.281Z,5.00
2022-08-30T12:29:52.818Z,4.90
2022-08-30T12:32:53.766Z,4.50
2022-08-30T12:35:28.298Z,4.77
2022-08-30T12:38:08.693Z,4.57
2022-08-30T12:40:52.339Z,4.90
2022-08-30T12:43:40.228Z,4.90
2022-08-30T12:46:26.034Z,4.90
2022-08-30T12:48:59.091Z,5.13
2022-08-30T12:51:38.487Z,4.37
2022-08-30T12:54:27.493Z,4.87
2022-08-30T12:57:34.902Z,4.90
2022-08-30T13:00:11.590Z,4.90
2022-08-30T13:03:25.197Z,3.93
2022-08-30T13:06:08.039Z,4.70
2022-08-30T13:08:51.926Z,4.73
2022-08-30T13:11:29.485Z,4.60
2022-08-30T13:14:32.868Z,5.87
2022-08-30T13:17:18.579Z,6.70
2022-08-30T13:20:27.129Z,4.50
2022-08-30T13:23:07.117Z,4.47
2022-08-30T13:25:40.966Z,4.23
2022-08-30T13:28:13.450Z,4.73
2022-08-30T13:30:45.543Z,4.87
2022-08-30T13:33:18.899Z,4.33
2022-08-30T13:35:53.461Z,4.27
2022-08-30T13:38:26.520Z,5.03
2022-08-30T13:40:58.838Z,4.57
2022-08-30T13:43:30.870Z,4.20
2022-08-30T13:46:25.061Z,4.90
2022-08-30T13:49:43.048Z,4.80
2022-08-30T13:52:19.792Z,6.00
2022-08-30T13:54:55.893Z,5.10
2022-08-30T14:00:23.541Z,4.70
2022-08-30T14:02:57.454Z,5.40
2022-08-30T14:06:09.891Z,4.90
2022-08-30T14:08:47.902Z,4.70
2022-08-30T14:11:22.975Z,4.10
2022-08-30T14:16:47.439Z,4.43
2022-08-30T14:19:19.836Z,5.00
2022-08-30T14:21:52.007Z,4.93
2022-08-30T14:24:24.089Z,4.23
2022-08-30T14:26:56.426Z,5.03
2022-08-30T14:29:29.986Z,4.70
2022-08-30T14:32:02.651Z,4.40
2022-08-30T14:34:34.809Z,4.83
2022-08-30T14:37:06.851Z,4.70
2022-08-30T14:39:39.282Z,4.27
2022-08-30T14:42:12.507Z,4.73
2022-08-30T14:44:56.656Z,4.90
2022-08-30T14:47:29.714Z,4.57
2022-08-30T14:50:02.224Z,4.90
2022-08-30T14:52:36.668Z,5.17
2022-08-30T14:55:10.655Z,5.07
2022-08-30T14:57:43.198Z,5.10
2022-08-30T15:00:16.024Z,4.80
2022-08-30T15:02:48.407Z,4.67
2022-08-30T15:05:21.010Z,4.70
2022-08-30T15:07:53.048Z,4.87
2022-08-30T15:10:25.232Z,4.47
2022-08-30T15:12:57.479Z,4.33
2022-08-30T15:15:29.576Z,5.13
2022-08-30T15:18:03.798Z,6.37
2022-08-30T15:20:36.411Z,5.77
2022-08-30T15:23:16.963Z,6.87
2022-08-30T15:25:49.138Z,5.13
2022-08-30T15:28:21.590Z,4.80
2022-08-30T15:30:53.756Z,4.90
2022-08-30T15:33:26.386Z,4.70
2022-08-30T15:36:02.081Z,5.47
2022-08-30T15:38:37.539Z,4.90
2022-08-30T15:41:12.421Z,4.60
2022-08-30T15:43:44.605Z,5.27
2022-08-30T15:46:32.267Z,5.60
2022-08-30T15:49:13.029Z,4.90
2022-08-30T15:51:54.123Z,6.07
2022-08-30T15:54:32.075Z,5.27
2022-08-30T15:57:05.804Z,4.33
2022-08-30T15:59:38.040Z,5.30
2022-08-30T16:02:10.853Z,5.50
2022-08-30T16:04:43.136Z,4.60
2022-08-30T16:07:15.624Z,5.23
2022-08-30T16:09:48.399Z,5.53
2022-08-30T16:12:23.666Z,5.00
2022-08-30T16:14:56.251Z,5.13
2022-08-30T16:17:28.410Z,5.50
2022-08-30T16:20:03.043Z,5.10
2022-08-30T16:22:36.116Z,4.63
2022-08-30T16:25:08.523Z,4.90
2022-08-30T16:27:43.061Z,5.23
2022-08-30T16:30:16.087Z,5.10
2022-08-30T16:32:49.387Z,5.33
2022-08-30T16:35:21.685Z,5.20
2022-08-30T16:37:54.190Z,5.80
2022-08-30T16:40:27.653Z,5.33
2022-08-30T16:42:59.873Z,6.00
2022-08-30T16:45:34.474Z,5.30
2022-08-30T16:48:10.090Z,4.60
2022-08-30T16:50:47.280Z,5.23
2022-08-30T16:53:19.436Z,5.70
2022-08-30T16:55:52.293Z,5.40
2022-08-30T16:58:25.407Z,5.23
2022-08-30T17:00:58.414Z,5.20
2022-08-30T17:03:31.427Z,4.87
2022-08-30T17:06:04.000Z,5.20
2022-08-30T17:08:36.675Z,5.20
2022-08-30T17:11:11.318Z,6.07
2022-08-30T17:13:44.460Z,5.30
2022-08-30T17:16:16.748Z,5.43
2022-08-30T17:18:59.510Z,4.73
2022-08-30T17:21:32.424Z,5.70
2022-08-30T17:24:05.449Z,5.60
2022-08-30T17:26:39.739Z,5.57
2022-08-30T17:29:12.896Z,5.50
2022-08-30T17:31:50.909Z,5.30
2022-08-30T17:34:24.584Z,5.30
2022-08-30T17:37:00.143Z,5.17
2022-08-30T17:39:32.456Z,5.27
2022-08-30T17:42:05.281Z,5.90
2022-08-30T17:44:42.357Z,5.50
2022-08-30T17:47:14.610Z,5.10
2022-08-30T17:49:47.764Z,5.53
2022-08-30T17:52:20.671Z,5.67
2022-08-30T17:54:53.650Z,5.37
2022-08-30T17:57:25.923Z,5.53
2022-08-30T17:59:58.604Z,5.50
2022-08-30T18:02:31.023Z,5.57
2022-08-30T18:05:04.861Z,5.87
2022-08-30T18:07:37.742Z,6.63
2022-08-30T18:10:10.980Z,5.00
2022-08-30T18:12:46.030Z,5.13
2022-08-30T18:15:37.961Z,5.30
2022-08-30T18:18:16.084Z,5.10
2022-08-30T18:20:49.630Z,4.90
2022-08-30T18:23:24.076Z,4.77
2022-08-30T18:25:59.757Z,5.43
2022-08-30T18:28:35.616Z,4.90
2022-08-30T18:31:07.901Z,6.00
2022-08-30T18:33:41.697Z,4.60
2022-08-30T18:36:16.185Z,4.40
2022-08-30T18:38:48.603Z,5.23
2022-08-30T18:41:21.094Z,6.63
2022-08-30T18:44:10.978Z,5.50
2022-08-30T18:46:56.829Z,5.00
2022-08-30T18:49:32.852Z,5.20
2022-08-30T18:52:09.844Z,4.40
2022-08-30T18:54:51.766Z,4.90
2022-08-30T18:57:25.193Z,5.47
2022-08-30T18:59:57.283Z,5.33
2022-08-30T19:02:29.298Z,4.40
2022-08-30T19:05:01.857Z,4.00
2022-08-30T19:07:36.904Z,3.90
2022-08-30T19:10:13.076Z,5.00
2022-08-30T19:12:47.299Z,4.60
2022-08-30T19:15:20.095Z,4.40
2022-08-30T19:18:16.744Z,4.30
2022-08-30T19:20:50.697Z,4.77
2022-08-30T19:23:27.063Z,4.40
2022-08-30T19:26:00.510Z,4.50
2022-08-30T19:28:36.744Z,4.40
2022-08-30T19:31:10.032Z,5.60
2022-08-30T19:33:42.614Z,4.90
2022-08-30T19:36:14.696Z,4.70
2022-08-30T19:38:46.811Z,5.03
2022-08-30T19:41:19.853Z,4.47
2022-08-30T19:43:51.900Z,4.70
2022-08-30T19:46:24.115Z,4.00
2022-08-30T19:48:57.401Z,4.70
2022-08-30T19:51:31.936Z,4.43
2022-08-30T19:54:06.346Z,4.63
2022-08-30T19:56:39.983Z,4.33
2022-08-30T19:59:12.151Z,4.23
2022-08-30T20:01:45.840Z,4.37
2022-08-30T20:04:18.148Z,3.60
2022-08-30T20:06:50.284Z,4.27
2022-08-30T20:09:22.619Z,4.33
2022-08-30T20:11:58.708Z,3.80
2022-08-30T20:14:32.065Z,4.33
2022-08-30T20:17:04.284Z,4.13
2022-08-30T20:19:36.510Z,4.90
2022-08-30T20:22:08.988Z,3.77
2022-08-30T20:24:43.973Z,4.57
2022-08-30T20:27:16.191Z,4.43
2022-08-30T20:29:48.316Z,3.80
2022-08-30T20:32:20.540Z,4.20
2022-08-30T20:34:53.637Z,4.10
2022-08-30T20:37:27.372Z,4.20
2022-08-30T20:40:02.218Z,4.83
2022-08-30T20:42:35.599Z,4.50
2022-08-30T20:45:08.629Z,3.93
2022-08-30T20:47:42.968Z,4.10
2022-08-30T20:50:16.569Z,4.57
2022-08-30T20:52:49.795Z,4.23
2022-08-30T20:55:22.050Z,4.00
2022-08-30T20:57:54.077Z,4.20
2022-08-30T21:00:26.648Z,3.97
2022-08-30T21:02:59.266Z,4.20
2022-08-30T21:05:31.515Z,4.60
2022-08-30T21:08:10.009Z,4.67
2022-08-30T21:10:42.976Z,3.93
2022-08-30T21:13:15.296Z,4.50
2022-08-30T21:16:00.565Z,4.13
2022-08-30T21:18:38.130Z,4.67
2022-08-30T21:21:21.340Z,4.50
2022-08-30T21:23:58.738Z,4.50
2022-08-30T21:26:33.658Z,4.50
2022-08-30T21:29:09.914Z,4.27
2022-08-30T21:31:43.142Z,4.50
2022-08-30T21:34:17.361Z,4.50
2022-08-30T21:36:50.030Z,4.67
2022-08-30T21:39:26.313Z,4.37
2022-08-30T21:41:59.486Z,4.30
2022-08-30T21:44:31.547Z,4.20
2022-08-30T21:47:03.987Z,4.13
2022-08-30T21:49:36.531Z,5.57
2022-08-30T21:52:08.729Z,5.57
2022-08-30T21:54:41.015Z,4.50
2022-08-30T21:57:13.702Z,3.70
2022-08-30T21:59:47.658Z,5.07
2022-08-30T22:02:20.099Z,4.30
2022-08-30T22:04:53.198Z,4.27
2022-08-30T22:07:25.430Z,5.07
2022-08-30T22:09:58.776Z,4.40
2022-08-30T22:12:30.879Z,4.50
2022-08-30T22:15:03.146Z,4.90
2022-08-30T22:17:36.159Z,4.73
2022-08-30T22:20:08.946Z,5.00
2022-08-30T22:22:41.473Z,4.80
2022-08-30T22:25:13.641Z,4.77
2022-08-30T22:27:45.959Z,5.30
2022-08-30T22:30:18.221Z,4.90
2022-08-30T22:32:50.503Z,4.90
2022-08-30T22:35:25.157Z,4.53
2022-08-30T22:37:57.145Z,4.90
2022-08-30T22:40:31.218Z,4.60
2022-08-30T22:43:03.568Z,4.90
2022-08-30T22:45:36.460Z,5.17
2022-08-30T22:48:08.617Z,3.70
2022-08-30T22:50:41.050Z,4.23
2022-08-30T22:53:13.165Z,4.40
2022-08-30T22:55:45.348Z,5.00
2022-08-30T22:58:19.012Z,4.90
2022-08-30T23:00:55.033Z,4.27
2022-08-30T23:03:27.668Z,4.30
2022-08-30T23:05:59.736Z,4.97
2022-08-30T23:08:32.343Z,4.27
2022-08-30T23:11:04.401Z,4.30
2022-08-30T23:13:37.248Z,4.37
2022-08-30T23:16:11.265Z,4.43
2022-08-30T23:18:45.175Z,4.70
2022-08-30T23:21:24.657Z,4.57
2022-08-30T23:24:18.007Z,4.40
2022-08-30T23:27:28.139Z,3.90
2022-08-30T23:30:38.470Z,4.87
2022-08-30T23:33:49.242Z,4.30
2022-08-30T23:36:59.560Z,3.90
2022-08-30T23:40:09.770Z,3.73
2022-08-30T23:43:20.008Z,3.93
2022-08-30T23:46:30.413Z,4.53
2022-08-30T23:49:41.019Z,4.60
2022-08-30T23:52:51.288Z,4.53
2022-08-30T23:56:01.444Z,4.40
2022-08-30T23:59:11.538Z,4.23
